createdAt,value
2022-08-10T00:01:08.489Z,16.08
2022-08-10T00:04:10.012Z,16.14
2022-08-10T00:07:22.699Z,16.17
2022-08-10T00:10:24.196Z,16.06
2022-08-10T00:13:26.082Z,15.87
2022-08-10T00:16:27.565Z,15.74
2022-08-10T00:19:29.071Z,15.68
2022-08-10T00:22:57.518Z,15.71
2022-08-10T00:25:59.787Z,15.78
2022-08-10T00:29:01.267Z,15.72
2022-08-10T00:32:02.890Z,15.53
2022-08-10T00:35:04.765Z,15.60
2022-08-10T00:38:06.276Z,15.40
2022-08-10T00:41:07.829Z,15.44
2022-08-10T00:44:09.335Z,15.42
2022-08-10T00:47:15.363Z,15.43
2022-08-10T00:50:33.060Z,15.36
2022-08-10T00:53:34.544Z,15.29
2022-08-10T00:57:15.050Z,15.31
2022-08-10T01:00:00.097Z,15.27
2022-08-10T01:03:02.438Z,15.25
2022-08-10T01:06:15.170Z,15.20
2022-08-10T01:09:22.740Z,15.22
2022-08-10T01:12:40.310Z,15.18
2022-08-10T01:16:05.343Z,15.20
2022-08-10T01:19:20.480Z,15.13
2022-08-10T01:22:58.389Z,15.01
2022-08-10T01:26:30.712Z,14.94
2022-08-10T01:29:54.004Z,14.99
2022-08-10T01:33:03.505Z,14.93
2022-08-10T01:36:16.387Z,14.90
2022-08-10T01:39:28.602Z,14.84
2022-08-10T01:42:30.957Z,14.74
2022-08-10T01:45:44.966Z,14.71
2022-08-10T01:48:52.156Z,14.72
2022-08-10T01:51:55.255Z,14.71
2022-08-10T01:54:56.777Z,14.77
2022-08-10T01:57:58.769Z,14.69
2022-08-10T02:01:00.426Z,14.70
2022-08-10T02:04:07.142Z,14.56
2022-08-10T02:07:11.780Z,14.50
2022-08-10T02:10:13.704Z,14.55
2022-08-10T02:13:15.458Z,14.46
2022-08-10T02:16:20.503Z,14.47
2022-08-10T02:19:22.513Z,14.50
2022-08-10T02:22:38.134Z,14.45
2022-08-10T02:25:43.643Z,14.37
2022-08-10T02:28:45.507Z,14.25
2022-08-10T02:31:47.008Z,14.21
2022-08-10T02:34:52.898Z,14.13
2022-08-10T02:37:57.550Z,14.25
2022-08-10T02:45:12.998Z,14.20
2022-08-10T02:45:30.823Z,14.29
2022-08-10T02:48:39.144Z,14.15
2022-08-10T02:52:06.747Z,14.10
2022-08-10T02:55:17.839Z,14.09
2022-08-10T02:58:32.661Z,14.03
2022-08-10T03:01:36.880Z,14.04
2022-08-10T03:04:55.914Z,13.95
2022-08-10T03:08:02.168Z,14.02
2022-08-10T03:11:04.132Z,13.98
2022-08-10T03:14:05.591Z,13.85
2022-08-10T03:17:07.172Z,13.85
2022-08-10T03:20:36.979Z,13.90
2022-08-10T03:23:30.291Z,13.76
2022-08-10T03:26:31.939Z,13.74
2022-08-10T03:30:28.295Z,13.73
2022-08-10T03:32:54.966Z,13.69
2022-08-10T03:36:43.673Z,13.73
2022-08-10T03:39:18.166Z,13.60
2022-08-10T03:42:20.270Z,13.72
2022-08-10T03:45:21.778Z,13.68
2022-08-10T03:48:24.581Z,13.66
2022-08-10T03:51:34.662Z,13.72
2022-08-10T03:54:36.131Z,13.76
2022-08-10T03:57:44.004Z,13.80
2022-08-10T04:00:51.229Z,13.84
2022-08-10T04:04:10.817Z,13.71
2022-08-10T04:07:14.215Z,13.77
2022-08-10T04:10:15.712Z,13.81
2022-08-10T04:13:17.174Z,13.71
2022-08-10T04:16:18.681Z,13.76
2022-08-10T04:19:20.311Z,13.72
2022-08-10T04:22:22.532Z,13.58
2022-08-10T04:25:24.022Z,13.61
2022-08-10T04:28:26.127Z,13.61
2022-08-10T04:31:27.604Z,13.52
2022-08-10T04:34:31.778Z,13.50
2022-08-10T04:37:33.373Z,13.53
2022-08-10T04:40:34.946Z,13.64
2022-08-10T04:43:36.584Z,13.66
2022-08-10T04:46:56.391Z,13.65
2022-08-10T04:49:59.542Z,13.66
2022-08-10T04:53:01.924Z,13.74
2022-08-10T04:56:03.563Z,13.66
2022-08-10T04:59:05.876Z,13.60
2022-08-10T05:02:28.498Z,13.71
2022-08-10T05:05:28.896Z,13.59
2022-08-10T05:08:30.400Z,13.61
2022-08-10T05:11:31.893Z,13.68
2022-08-10T05:14:33.393Z,13.77
2022-08-10T05:17:35.891Z,13.83
2022-08-10T05:20:37.864Z,13.93
2022-08-10T05:23:39.406Z,14.06
2022-08-10T05:26:55.251Z,14.17
2022-08-10T05:30:03.714Z,14.33
2022-08-10T05:33:08.786Z,14.44
2022-08-10T05:36:10.713Z,14.47
2022-08-10T05:39:12.291Z,14.58
2022-08-10T05:42:13.865Z,14.69
2022-08-10T05:45:24.232Z,14.84
2022-08-10T05:48:57.252Z,15.01
2022-08-10T05:51:47.323Z,15.17
2022-08-10T05:54:48.909Z,15.34
2022-08-10T05:57:51.532Z,15.45
2022-08-10T06:00:54.677Z,15.59
2022-08-10T06:03:59.636Z,15.73
2022-08-10T06:07:01.410Z,15.84
2022-08-10T06:10:03.029Z,16.00
2022-08-10T06:13:29.851Z,16.09
2022-08-10T06:16:33.296Z,16.27
2022-08-10T06:19:36.502Z,16.42
2022-08-10T06:22:40.058Z,16.65
2022-08-10T06:26:10.584Z,17.02
2022-08-10T06:29:10.256Z,17.30
2022-08-10T06:32:11.828Z,17.50
2022-08-10T06:35:13.396Z,17.80
2022-08-10T06:38:14.954Z,17.94
2022-08-10T06:41:20.979Z,18.10
2022-08-10T06:44:29.981Z,18.37
2022-08-10T06:47:37.683Z,18.71
2022-08-10T06:50:56.134Z,18.97
2022-08-10T06:54:02.936Z,19.39
2022-08-10T06:57:19.833Z,20.00
2022-08-10T07:00:21.489Z,20.20
2022-08-10T07:03:26.570Z,20.66
2022-08-10T07:06:28.563Z,20.93
2022-08-10T07:09:30.109Z,21.13
2022-08-10T07:12:31.679Z,21.25
2022-08-10T07:16:00.274Z,21.52
2022-08-10T07:18:56.485Z,21.73
2022-08-10T07:21:58.195Z,21.63
2022-08-10T07:24:59.650Z,21.57
2022-08-10T07:28:02.054Z,21.99
2022-08-10T07:31:03.863Z,22.12
2022-08-10T07:34:29.556Z,22.10
2022-08-10T07:37:35.622Z,22.17
2022-08-10T07:40:37.216Z,22.46
2022-08-10T07:43:38.904Z,22.69
2022-08-10T07:46:45.880Z,22.64
2022-08-10T07:49:47.426Z,22.81
2022-08-10T07:52:48.850Z,23.05
2022-08-10T07:56:07.607Z,23.27
2022-08-10T07:59:12.245Z,23.47
2022-08-10T08:02:23.605Z,23.50
2022-08-10T08:05:38.559Z,23.57
2022-08-10T08:08:47.589Z,23.62
2022-08-10T08:11:49.558Z,23.95
2022-08-10T08:14:51.368Z,24.11
2022-08-10T08:17:59.675Z,24.13
2022-08-10T08:21:02.690Z,24.47
2022-08-10T08:24:31.401Z,25.12
2022-08-10T08:27:34.835Z,25.16
2022-08-10T08:30:37.376Z,25.18
2022-08-10T08:33:41.540Z,25.29
2022-08-10T08:36:44.313Z,25.55
2022-08-10T08:39:47.241Z,25.81
2022-08-10T08:43:01.466Z,26.17
2022-08-10T08:46:28.879Z,26.50
2022-08-10T08:50:07.690Z,26.26
2022-08-10T08:54:01.901Z,26.06
2022-08-10T08:56:54.470Z,26.06
2022-08-10T09:00:10.049Z,26.15
2022-08-10T09:03:40.413Z,25.93
2022-08-10T09:07:03.256Z,26.38
2022-08-10T09:10:31.952Z,26.57
2022-08-10T09:13:42.533Z,26.48
2022-08-10T09:17:01.370Z,26.41
2022-08-10T09:20:18.307Z,26.76
2022-08-10T09:24:02.042Z,26.79
2022-08-10T09:26:51.499Z,26.96
2022-08-10T09:30:02.807Z,27.19
2022-08-10T09:36:24.243Z,27.52
2022-08-10T09:36:59.372Z,27.95
2022-08-10T09:40:58.844Z,28.77
2022-08-10T09:43:28.241Z,29.52
2022-08-10T09:47:07.942Z,29.40
2022-08-10T09:51:09.328Z,28.97
2022-08-10T09:54:17.364Z,28.42
2022-08-10T09:57:44.401Z,27.66
2022-08-10T10:00:52.942Z,28.02
2022-08-10T10:04:16.493Z,27.89
2022-08-10T10:07:26.947Z,28.42
2022-08-10T10:10:51.875Z,28.95
2022-08-10T10:14:16.240Z,28.86
2022-08-10T10:17:18.878Z,28.62
2022-08-10T10:20:41.871Z,28.23
2022-08-10T10:24:21.332Z,28.82
2022-08-10T10:27:36.682Z,28.98
2022-08-10T10:31:21.667Z,28.79
2022-08-10T10:34:35.401Z,28.98
2022-08-10T10:38:02.495Z,28.98
2022-08-10T10:42:03.528Z,28.96
2022-08-10T10:45:06.755Z,29.67
2022-08-10T10:48:39.942Z,29.96
2022-08-10T10:51:44.857Z,30.20
2022-08-10T10:55:16.278Z,29.52
2022-08-10T10:58:50.818Z,29.35
2022-08-10T11:02:06.456Z,29.44
2022-08-10T11:05:23.161Z,29.57
2022-08-10T11:08:28.795Z,29.82
2022-08-10T11:12:01.978Z,30.45
2022-08-10T11:15:15.061Z,30.44
2022-08-10T11:18:27.561Z,30.74
2022-08-10T11:21:57.076Z,30.82
2022-08-10T11:25:03.015Z,30.04
2022-08-10T11:28:21.992Z,29.54
2022-08-10T11:31:40.226Z,29.74
2022-08-10T11:35:11.279Z,30.16
2022-08-10T11:38:51.980Z,30.35
2022-08-10T11:42:16.109Z,30.05
2022-08-10T11:45:35.209Z,30.41
2022-08-10T11:48:53.492Z,30.64
2022-08-10T11:52:00.494Z,30.39
2022-08-10T11:55:10.877Z,30.36
2022-08-10T11:58:32.383Z,30.51
2022-08-10T12:01:34.212Z,30.57
2022-08-10T12:04:35.743Z,31.11
2022-08-10T12:10:07.520Z,31.27
2022-08-10T12:11:09.044Z,31.28
2022-08-10T12:14:32.470Z,31.04
2022-08-10T12:17:49.205Z,31.29
2022-08-10T12:20:54.079Z,30.74
2022-08-10T12:24:03.157Z,30.03
2022-08-10T12:27:13.011Z,30.10
2022-08-10T12:30:15.903Z,29.87
2022-08-10T12:33:29.322Z,29.85
2022-08-10T12:36:39.109Z,29.69
2022-08-10T12:40:33.797Z,29.77
2022-08-10T12:44:07.129Z,30.37
2022-08-10T12:47:05.739Z,30.81
2022-08-10T12:50:31.287Z,30.70
2022-08-10T12:53:47.538Z,31.24
2022-08-10T12:56:51.917Z,31.15
2022-08-10T13:00:00.555Z,31.47
2022-08-10T13:03:03.061Z,30.97
2022-08-10T13:06:05.036Z,31.24
2022-08-10T13:09:09.472Z,31.10
2022-08-10T13:12:35.624Z,31.36
2022-08-10T13:15:50.730Z,30.97
2022-08-10T13:18:52.888Z,31.13
2022-08-10T13:21:54.689Z,31.60
2022-08-10T13:24:57.983Z,31.25
2022-08-10T13:28:37.065Z,31.09
2022-08-10T13:32:09.049Z,30.39
2022-08-10T13:34:51.875Z,31.07
2022-08-10T13:37:55.621Z,31.23
2022-08-10T13:40:57.177Z,31.37
2022-08-10T13:44:00.908Z,30.68
2022-08-10T13:47:02.468Z,31.27
2022-08-10T13:50:08.128Z,31.71
2022-08-10T13:53:15.877Z,32.04
2022-08-10T13:56:17.562Z,32.36
2022-08-10T13:59:19.157Z,32.69
2022-08-10T14:02:45.303Z,33.03
2022-08-10T14:05:51.680Z,33.07
2022-08-10T14:09:11.580Z,33.27
2022-08-10T14:12:13.134Z,33.65
2022-08-10T14:15:16.525Z,32.62
2022-08-10T14:18:18.098Z,32.99
2022-08-10T14:21:19.792Z,32.84
2022-08-10T14:24:21.721Z,31.95
2022-08-10T14:27:23.273Z,32.22
2022-08-10T14:30:24.806Z,31.51
2022-08-10T14:33:33.132Z,30.98
2022-08-10T14:36:58.296Z,30.94
2022-08-10T14:40:02.672Z,30.92
2022-08-10T14:43:09.315Z,30.53
2022-08-10T14:46:11.756Z,30.39
2022-08-10T14:49:25.486Z,30.00
2022-08-10T14:52:27.597Z,30.21
2022-08-10T14:55:29.183Z,30.38
2022-08-10T14:58:59.126Z,29.84
2022-08-10T15:02:40.805Z,29.98
2022-08-10T15:05:39.893Z,29.97
2022-08-10T15:08:47.016Z,30.12
2022-08-10T15:12:13.349Z,29.99
2022-08-10T15:15:16.561Z,29.79
2022-08-10T15:18:26.316Z,29.94
2022-08-10T15:21:42.362Z,29.92
2022-08-10T15:25:03.731Z,29.85
2022-08-10T15:28:06.635Z,30.14
2022-08-10T15:31:08.241Z,29.79
2022-08-10T15:34:28.904Z,29.91
2022-08-10T15:37:36.337Z,29.60
2022-08-10T15:40:51.903Z,29.62
2022-08-10T15:43:53.725Z,29.61
2022-08-10T15:47:02.325Z,29.54
2022-08-10T15:50:06.979Z,29.42
2022-08-10T15:53:16.642Z,29.24
2022-08-10T15:56:28.395Z,29.15
2022-08-10T15:59:33.882Z,28.82
2022-08-10T16:02:53.620Z,28.84
2022-08-10T16:06:01.441Z,28.86
2022-08-10T16:10:22.539Z,29.09
2022-08-10T16:12:35.945Z,29.18
2022-08-10T16:15:37.570Z,29.27
2022-08-10T16:18:40.826Z,29.24
2022-08-10T16:21:42.574Z,29.26
2022-08-10T16:24:47.400Z,29.32
2022-08-10T16:27:49.029Z,29.33
2022-08-10T16:30:54.244Z,29.30
2022-08-10T16:33:58.000Z,29.06
2022-08-10T16:37:15.251Z,29.09
2022-08-10T16:40:16.874Z,28.80
2022-08-10T16:43:23.731Z,28.89
2022-08-10T16:46:25.625Z,28.84
2022-08-10T16:49:27.192Z,28.80
2022-08-10T16:52:29.623Z,28.80
2022-08-10T16:55:48.239Z,28.68
2022-08-10T16:58:54.497Z,28.50
2022-08-10T17:01:56.056Z,28.49
2022-08-10T17:04:57.908Z,28.50
2022-08-10T17:08:17.801Z,28.28
2022-08-10T17:11:20.853Z,28.17
2022-08-10T17:14:24.182Z,28.13
2022-08-10T17:17:31.165Z,28.04
2022-08-10T17:20:40.095Z,27.90
2022-08-10T17:23:46.856Z,27.84
2022-08-10T17:26:48.445Z,27.80
2022-08-10T17:29:59.010Z,27.76
2022-08-10T17:33:12.483Z,27.70
2022-08-10T17:36:14.024Z,27.65
2022-08-10T17:39:16.159Z,27.45
2022-08-10T17:42:22.054Z,27.34
2022-08-10T17:45:48.823Z,27.23
2022-08-10T17:48:51.508Z,27.17
2022-08-10T17:51:53.833Z,27.11
2022-08-10T17:54:57.547Z,27.07
2022-08-10T17:58:02.255Z,26.93
2022-08-10T18:01:41.287Z,26.80
2022-08-10T18:04:26.061Z,26.71
2022-08-10T18:07:38.458Z,26.60
2022-08-10T18:10:40.463Z,26.43
2022-08-10T18:13:55.285Z,26.24
2022-08-10T18:16:58.846Z,26.20
2022-08-10T18:20:04.303Z,26.15
2022-08-10T18:23:06.786Z,26.05
2022-08-10T18:26:10.682Z,25.83
2022-08-10T18:29:15.238Z,25.60
2022-08-10T18:32:21.609Z,25.47
2022-08-10T18:35:34.992Z,25.34
2022-08-10T18:38:38.287Z,25.24
2022-08-10T18:42:00.709Z,25.09
2022-08-10T18:45:09.595Z,24.91
2022-08-10T18:48:16.278Z,24.73
2022-08-10T18:51:27.745Z,24.58
2022-08-10T18:54:44.531Z,24.36
2022-08-10T18:58:08.575Z,24.15
2022-08-10T19:01:28.814Z,23.93
2022-08-10T19:04:49.149Z,23.66
2022-08-10T19:08:49.683Z,23.49
2022-08-10T19:12:00.843Z,23.47
2022-08-10T19:15:29.010Z,23.25
2022-08-10T19:18:32.312Z,23.01
2022-08-10T19:21:39.502Z,22.83
2022-08-10T19:24:44.699Z,22.74
2022-08-10T19:28:11.207Z,22.55
2022-08-10T19:31:19.220Z,22.45
2022-08-10T19:34:33.615Z,22.33
2022-08-10T19:37:59.879Z,22.16
2022-08-10T19:41:16.731Z,21.97
2022-08-10T19:44:42.264Z,21.71
2022-08-10T19:48:00.536Z,21.59
2022-08-10T19:51:10.103Z,21.48
2022-08-10T19:54:17.747Z,21.34
2022-08-10T19:57:37.721Z,21.19
2022-08-10T20:00:57.763Z,21.07
2022-08-10T20:04:05.111Z,20.92
2022-08-10T20:07:18.967Z,20.82
2022-08-10T20:10:24.337Z,20.73
2022-08-10T20:13:29.957Z,20.66
2022-08-10T20:16:33.086Z,20.57
2022-08-10T20:19:52.778Z,20.44
2022-08-10T20:23:05.335Z,20.43
2022-08-10T20:26:40.888Z,20.29
2022-08-10T20:30:12.960Z,20.11
2022-08-10T20:33:18.084Z,19.94
2022-08-10T20:36:26.496Z,19.84
2022-08-10T20:39:42.437Z,19.65
2022-08-10T20:42:57.050Z,19.52
2022-08-10T20:46:08.924Z,19.35
2022-08-10T20:49:10.762Z,19.32
2022-08-10T20:52:12.342Z,19.27
2022-08-10T20:55:13.898Z,19.24
2022-08-10T20:58:50.037Z,19.12
2022-08-10T21:02:17.628Z,18.84
2022-08-10T21:05:52.816Z,18.63
2022-08-10T21:09:14.330Z,18.68
2022-08-10T21:12:22.544Z,18.56
2022-08-10T21:15:48.236Z,18.51
2022-08-10T21:19:15.122Z,18.40
2022-08-10T21:22:39.124Z,18.38
2022-08-10T21:25:49.224Z,18.37
2022-08-10T21:29:07.627Z,18.21
2022-08-10T21:32:48.207Z,18.10
2022-08-10T21:35:57.148Z,17.93
2022-08-10T21:39:06.299Z,17.93
2022-08-10T21:43:07.647Z,17.75
2022-08-10T21:46:54.796Z,17.74
2022-08-10T21:50:15.686Z,17.71
2022-08-10T21:53:57.202Z,17.75
2022-08-10T21:57:20.394Z,17.64
2022-08-10T22:00:40.588Z,17.65
2022-08-10T22:04:01.487Z,17.60
2022-08-10T22:07:22.480Z,17.44
2022-08-10T22:10:46.139Z,17.37
2022-08-10T22:14:09.351Z,17.29
2022-08-10T22:18:03.603Z,17.10
2022-08-10T22:21:45.357Z,17.18
2022-08-10T22:25:29.419Z,17.26
2022-08-10T22:28:49.486Z,17.13
2022-08-10T22:32:15.065Z,16.92
2022-08-10T22:35:51.432Z,16.74
2022-08-10T22:40:12.308Z,16.66
2022-08-10T22:43:10.526Z,16.63
2022-08-10T22:46:46.180Z,16.58
2022-08-10T22:49:51.881Z,16.44
2022-08-10T22:53:07.867Z,16.46
2022-08-10T22:56:27.923Z,16.43
2022-08-10T22:59:30.734Z,16.41
2022-08-10T23:02:33.786Z,16.33
2022-08-10T23:05:37.933Z,16.34
2022-08-10T23:08:48.204Z,16.27
2022-08-10T23:11:51.138Z,16.22
2022-08-10T23:15:11.794Z,16.14
2022-08-10T23:18:35.298Z,16.11
2022-08-10T23:22:03.343Z,16.16
2022-08-10T23:25:11.452Z,16.28
2022-08-10T23:28:13.376Z,16.14
2022-08-10T23:32:01.282Z,16.04
2022-08-10T23:34:39.989Z,16.06
2022-08-10T23:37:41.588Z,15.98
2022-08-10T23:40:47.258Z,15.89
2022-08-10T23:44:03.776Z,15.92
2022-08-10T23:47:06.026Z,15.81
2022-08-10T23:50:09.962Z,15.75
2022-08-10T23:53:13.736Z,15.79
2022-08-10T23:56:17.191Z,15.93
2022-08-10T23:59:21.534Z,15.87
